sensor_id;sensor_type;location;lat;lon;timestamp;pressure;altitude;pressure_sealevel;temperature;humidity
44079;BME280;29744;49.078;12.878;2022-11-23T00:01:55;95152.88;;;15.81;40.77
44079;BME280;29744;49.078;12.878;2022-11-23T00:06:56;95151.63;;;15.78;40.80
44079;BME280;29744;49.078;12.878;2022-11-23T00:11:56;95142.69;;;15.74;40.54
44079;BME280;29744;49.078;12.878;2022-11-23T00:16:56;95144.97;;;15.72;40.78
44079;BME280;29744;49.078;12.878;2022-11-23T00:21:57;95153.03;;;15.68;40.83
44079;BME280;29744;49.078;12.878;2022-11-23T00:26:57;95155.31;;;15.66;41.17
44079;BME280;29744;49.078;12.878;2022-11-23T00:31:57;95153.31;;;15.63;41.01
44079;BME280;29744;49.078;12.878;2022-11-23T00:36:57;95164.50;;;15.62;40.63
44079;BME280;29744;49.078;12.878;2022-11-23T00:41:58;95161.75;;;15.58;40.84
44079;BME280;29744;49.078;12.878;2022-11-23T00:46:58;95162.09;;;15.57;41.00
44079;BME280;29744;49.078;12.878;2022-11-23T00:51:58;95164.75;;;15.53;40.73
44079;BME280;29744;49.078;12.878;2022-11-23T00:56:59;95156.22;;;15.51;41.26
44079;BME280;29744;49.078;12.878;2022-11-23T01:01:59;95157.72;;;15.49;41.24
44079;BME280;29744;49.078;12.878;2022-11-23T01:06:59;95158.44;;;15.45;41.26
44079;BME280;29744;49.078;12.878;2022-11-23T01:12:00;95163.41;;;15.43;41.08
44079;BME280;29744;49.078;12.878;2022-11-23T01:17:00;95163.00;;;15.41;41.25
44079;BME280;29744;49.078;12.878;2022-11-23T01:22:00;95163.34;;;15.40;41.31
44079;BME280;29744;49.078;12.878;2022-11-23T01:27:00;95171.41;;;15.36;41.30
44079;BME280;29744;49.078;12.878;2022-11-23T01:32:01;95167.91;;;15.36;41.20
44079;BME280;29744;49.078;12.878;2022-11-23T01:37:01;95166.28;;;15.31;41.25
44079;BME280;29744;49.078;12.878;2022-11-23T01:42:01;95165.50;;;15.31;41.27
44079;BME280;29744;49.078;12.878;2022-11-23T01:47:07;95159.69;;;15.29;41.03
44079;BME280;29744;49.078;12.878;2022-11-23T01:52:18;95166.59;;;15.26;41.43
44079;BME280;29744;49.078;12.878;2022-11-23T01:57:28;95176.97;;;15.24;41.39
44079;BME280;29744;49.078;12.878;2022-11-23T02:02:30;95178.09;;;15.23;41.24
44079;BME280;29744;49.078;12.878;2022-11-23T02:07:32;95184.66;;;15.22;41.37
44079;BME280;29744;49.078;12.878;2022-11-23T02:12:33;95186.91;;;15.20;41.51
44079;BME280;29744;49.078;12.878;2022-11-23T02:17:33;95189.97;;;15.19;41.74
44079;BME280;29744;49.078;12.878;2022-11-23T02:22:58;95192.63;;;15.15;41.53
44079;BME280;29744;49.078;12.878;2022-11-23T02:28:03;95191.84;;;15.14;41.45
44079;BME280;29744;49.078;12.878;2022-11-23T02:33:04;95183.31;;;15.12;41.53
44079;BME280;29744;49.078;12.878;2022-11-23T02:38:07;95183.31;;;15.12;41.32
44079;BME280;29744;49.078;12.878;2022-11-23T02:43:08;95187.50;;;15.10;41.63
44079;BME280;29744;49.078;12.878;2022-11-23T02:48:08;95196.75;;;15.09;41.55
44079;BME280;29744;49.078;12.878;2022-11-23T02:53:08;95186.28;;;15.07;41.38
44079;BME280;29744;49.078;12.878;2022-11-23T02:58:09;95200.16;;;15.06;41.94
44079;BME280;29744;49.078;12.878;2022-11-23T03:03:10;95200.50;;;15.04;41.64
44079;BME280;29744;49.078;12.878;2022-11-23T03:08:10;95202.44;;;15.04;41.31
44079;BME280;29744;49.078;12.878;2022-11-23T03:13:10;95194.69;;;15.02;41.38
44079;BME280;29744;49.078;12.878;2022-11-23T03:18:11;95199.28;;;15.02;41.83
44079;BME280;29744;49.078;12.878;2022-11-23T03:23:11;95198.50;;;15.01;41.49
44079;BME280;29744;49.078;12.878;2022-11-23T03:28:11;95200.41;;;15.01;41.84
44079;BME280;29744;49.078;12.878;2022-11-23T03:33:11;95200.78;;;14.99;41.66
44079;BME280;29744;49.078;12.878;2022-11-23T03:38:12;95202.69;;;14.99;41.55
44079;BME280;29744;49.078;12.878;2022-11-23T03:43:13;95194.16;;;14.97;41.44
44079;BME280;29744;49.078;12.878;2022-11-23T03:48:14;95204.97;;;14.97;42.01
44079;BME280;29744;49.078;12.878;2022-11-23T03:53:15;95191.81;;;14.95;41.62
44079;BME280;29744;49.078;12.878;2022-11-23T03:58:15;95197.56;;;14.94;41.46
44079;BME280;29744;49.078;12.878;2022-11-23T04:03:15;95202.53;;;14.92;41.53
44079;BME280;29744;49.078;12.878;2022-11-23T04:08:16;95192.88;;;14.91;41.38
44079;BME280;29744;49.078;12.878;2022-11-23T04:13:17;95197.06;;;14.88;41.68
44079;BME280;29744;49.078;12.878;2022-11-23T04:18:17;95192.03;;;14.87;41.57
44079;BME280;29744;49.078;12.878;2022-11-23T04:23:17;95198.56;;;14.86;41.82
44079;BME280;29744;49.078;12.878;2022-11-23T04:28:17;95199.69;;;14.85;41.67
44079;BME280;29744;49.078;12.878;2022-11-23T04:33:18;95203.53;;;14.83;41.55
44079;BME280;29744;49.078;12.878;2022-11-23T04:38:18;95205.47;;;14.83;41.86
44079;BME280;29744;49.078;12.878;2022-11-23T04:43:18;95202.75;;;14.83;41.61
44079;BME280;29744;49.078;12.878;2022-11-23T04:48:19;95199.69;;;14.85;41.97
44079;BME280;29744;49.078;12.878;2022-11-23T04:53:19;95198.56;;;14.86;42.15
44079;BME280;29744;49.078;12.878;2022-11-23T04:58:20;95207.88;;;14.88;41.88
44079;BME280;29744;49.078;12.878;2022-11-23T05:03:20;95217.59;;;14.93;41.94
44079;BME280;29744;49.078;12.878;2022-11-23T05:08:20;95213.47;;;14.99;41.77
44079;BME280;29744;49.078;12.878;2022-11-23T05:13:20;95212.09;;;15.05;41.59
44079;BME280;29744;49.078;12.878;2022-11-23T05:18:21;95212.22;;;15.12;41.62
44079;BME280;29744;49.078;12.878;2022-11-23T05:23:21;95208.53;;;15.20;41.93
44079;BME280;29744;49.078;12.878;2022-11-23T05:28:22;95206.38;;;15.29;41.29
44079;BME280;29744;49.078;12.878;2022-11-23T05:33:22;95209.63;;;15.38;41.18
44079;BME280;29744;49.078;12.878;2022-11-23T05:38:22;95205.94;;;15.46;41.81
44079;BME280;29744;49.078;12.878;2022-11-23T05:43:23;95207.25;;;15.56;41.51
44079;BME280;29744;49.078;12.878;2022-11-23T05:48:23;95205.09;;;15.65;41.66
44079;BME280;29744;49.078;12.878;2022-11-23T05:53:23;95211.81;;;15.75;41.37
44079;BME280;29744;49.078;12.878;2022-11-23T05:58:24;95209.69;;;15.84;40.96
44079;BME280;29744;49.078;12.878;2022-11-23T06:03:24;95211.38;;;15.92;41.06
44079;BME280;29744;49.078;12.878;2022-11-23T06:08:25;95220.00;;;16.01;41.16
44079;BME280;29744;49.078;12.878;2022-11-23T06:13:25;95221.69;;;16.09;41.26
44079;BME280;29744;49.078;12.878;2022-11-23T06:18:25;95219.50;;;16.19;41.00
44079;BME280;29744;49.078;12.878;2022-11-23T06:23:26;95214.56;;;16.24;40.74
44079;BME280;29744;49.078;12.878;2022-11-23T06:28:27;95217.00;;;16.33;40.86
44079;BME280;29744;49.078;12.878;2022-11-23T06:33:28;95225.59;;;16.38;41.11
44079;BME280;29744;49.078;12.878;2022-11-23T06:38:28;95224.91;;;16.41;40.41
44079;BME280;29744;49.078;12.878;2022-11-23T06:43:29;95233.47;;;16.47;40.39
44079;BME280;29744;49.078;12.878;2022-11-23T06:48:29;95232.34;;;16.48;40.51
44079;BME280;29744;49.078;12.878;2022-11-23T06:53:30;95240.88;;;16.50;40.76
44079;BME280;29744;49.078;12.878;2022-11-23T06:58:30;95241.28;;;16.52;40.55
44079;BME280;29744;49.078;12.878;2022-11-23T07:03:31;95235.09;;;16.52;40.77
44079;BME280;29744;49.078;12.878;2022-11-23T07:08:32;95245.91;;;16.52;40.60
44079;BME280;29744;49.078;12.878;2022-11-23T07:13:32;95239.72;;;16.51;40.49
44079;BME280;29744;49.078;12.878;2022-11-23T07:18:33;95243.56;;;16.50;40.38
44079;BME280;29744;49.078;12.878;2022-11-23T07:23:33;95239.31;;;16.49;40.58
44079;BME280;29744;49.078;12.878;2022-11-23T07:28:37;95230.41;;;16.49;40.49
44079;BME280;29744;49.078;12.878;2022-11-23T07:33:38;95246.22;;;16.47;40.47
44079;BME280;29744;49.078;12.878;2022-11-23T07:38:38;95247.75;;;16.44;40.54
44079;BME280;29744;49.078;12.878;2022-11-23T07:43:39;95250.81;;;16.42;40.51
44079;BME280;29744;49.078;12.878;2022-11-23T07:48:39;95252.28;;;16.40;40.72
44079;BME280;29744;49.078;12.878;2022-11-23T07:53:39;95256.50;;;16.37;40.46
44079;BME280;29744;49.078;12.878;2022-11-23T07:58:39;95261.50;;;16.35;40.75
44079;BME280;29744;49.078;12.878;2022-11-23T08:03:40;95267.63;;;16.32;40.51
44079;BME280;29744;49.078;12.878;2022-11-23T08:08:40;95265.66;;;16.29;40.66
44079;BME280;29744;49.078;12.878;2022-11-23T08:13:41;95263.31;;;16.28;40.65
44079;BME280;29744;49.078;12.878;2022-11-23T08:18:42;95268.66;;;16.24;40.84
44079;BME280;29744;49.078;12.878;2022-11-23T08:23:42;95267.84;;;16.20;40.78
44079;BME280;29744;49.078;12.878;2022-11-23T08:28:42;95262.00;;;16.18;40.48
44079;BME280;29744;49.078;12.878;2022-11-23T08:33:43;95260.03;;;16.15;40.48
44079;BME280;29744;49.078;12.878;2022-11-23T08:38:43;95272.34;;;16.13;40.71
44079;BME280;29744;49.078;12.878;2022-11-23T08:43:43;95275.78;;;16.09;40.65
44079;BME280;29744;49.078;12.878;2022-11-23T08:48:43;95273.44;;;16.08;41.02
44079;BME280;29744;49.078;12.878;2022-11-23T08:53:44;95279.13;;;16.03;40.76
44079;BME280;29744;49.078;12.878;2022-11-23T08:58:44;95282.97;;;16.02;40.80
44079;BME280;29744;49.078;12.878;2022-11-23T09:03:45;95297.22;;;15.99;40.60
44079;BME280;29744;49.078;12.878;2022-11-23T09:08:45;95288.69;;;15.97;41.04
44079;BME280;29744;49.078;12.878;2022-11-23T09:13:45;95284.78;;;15.94;40.92
44079;BME280;29744;49.078;12.878;2022-11-23T09:18:46;95277.81;;;15.93;40.86
44079;BME280;29744;49.078;12.878;2022-11-23T09:23:48;95265.00;;;15.90;40.80
44079;BME280;29744;49.078;12.878;2022-11-23T09:28:48;95275.84;;;15.90;40.79
44079;BME280;29744;49.078;12.878;2022-11-23T09:33:51;95271.94;;;15.88;40.83
44079;BME280;29744;49.078;12.878;2022-11-23T09:38:52;95276.13;;;15.85;41.11
44079;BME280;29744;49.078;12.878;2022-11-23T09:44:05;95275.28;;;15.81;40.98
44079;BME280;29744;49.078;12.878;2022-11-23T09:54:51;95269.00;;;15.77;40.89
44079;BME280;29744;49.078;12.878;2022-11-23T09:59:49;95270.50;;;15.74;40.77
44079;BME280;29744;49.078;12.878;2022-11-23T10:04:52;95263.91;;;15.72;40.95
44079;BME280;29744;49.078;12.878;2022-11-23T10:09:59;95264.63;;;15.69;41.03
44079;BME280;29744;49.078;12.878;2022-11-23T10:15:11;95258.78;;;15.67;41.26
44079;BME280;29744;49.078;12.878;2022-11-23T10:25:50;95245.03;;;15.53;41.22
44079;BME280;29744;49.078;12.878;2022-11-23T10:31:03;95247.00;;;15.56;41.13
44079;BME280;29744;49.078;12.878;2022-11-23T10:36:08;95253.19;;;15.56;41.22
44079;BME280;29744;49.078;12.878;2022-11-23T10:41:11;95249.28;;;15.54;41.25
44079;BME280;29744;49.078;12.878;2022-11-23T10:51:36;95246.50;;;15.50;40.99
44079;BME280;29744;49.078;12.878;2022-11-23T10:56:47;95239.53;;;15.49;41.31
44079;BME280;29744;49.078;12.878;2022-11-23T11:07:17;95231.03;;;15.47;41.64
44079;BME280;29744;49.078;12.878;2022-11-23T11:12:19;95229.03;;;15.44;41.42
44079;BME280;29744;49.078;12.878;2022-11-23T11:17:28;95221.28;;;15.42;41.59
44079;BME280;29744;49.078;12.878;2022-11-23T11:22:33;95227.84;;;15.41;41.31
44079;BME280;29744;49.078;12.878;2022-11-23T11:27:35;95215.47;;;15.40;41.67
44079;BME280;29744;49.078;12.878;2022-11-23T11:32:54;95211.13;;;15.36;41.43
44079;BME280;29744;49.078;12.878;2022-11-23T11:38:01;95203.81;;;15.36;41.66
44079;BME280;29744;49.078;12.878;2022-11-23T11:43:06;95203.03;;;15.36;41.54
44079;BME280;29744;49.078;12.878;2022-11-23T11:48:16;95209.56;;;15.35;41.21
44079;BME280;29744;49.078;12.878;2022-11-23T11:53:22;95209.94;;;15.33;41.71
44079;BME280;29744;49.078;12.878;2022-11-23T11:58:24;95204.09;;;15.31;41.66
44079;BME280;29744;49.078;12.878;2022-11-23T12:03:43;95205.59;;;15.29;41.44
44079;BME280;29744;49.078;12.878;2022-11-23T12:08:58;95199.41;;;15.28;41.82
44079;BME280;29744;49.078;12.878;2022-11-23T12:14:02;95204.81;;;15.28;41.86
44079;BME280;29744;49.078;12.878;2022-11-23T12:19:19;95210.16;;;15.25;41.54
44079;BME280;29744;49.078;12.878;2022-11-23T12:40:35;95196.09;;;15.16;42.11
44079;BME280;29744;49.078;12.878;2022-11-23T12:45:49;95201.50;;;15.16;41.63
44079;BME280;29744;49.078;12.878;2022-11-23T12:51:20;95189.13;;;15.14;41.97
44079;BME280;29744;49.078;12.878;2022-11-23T13:01:41;95185.22;;;15.12;41.79
44079;BME280;29744;49.078;12.878;2022-11-23T13:12:07;95188.28;;;15.10;41.88
44079;BME280;29744;49.078;12.878;2022-11-23T13:22:32;95187.84;;;15.08;41.91
44079;BME280;29744;49.078;12.878;2022-11-23T13:27:42;95187.06;;;15.08;42.08
44079;BME280;29744;49.078;12.878;2022-11-23T13:38:16;95189.41;;;15.09;42.06
44079;BME280;29744;49.078;12.878;2022-11-23T13:43:25;95192.47;;;15.08;41.62
44079;BME280;29744;49.078;12.878;2022-11-23T13:48:26;95195.97;;;15.08;41.66
44079;BME280;29744;49.078;12.878;2022-11-23T13:53:30;95192.47;;;15.08;41.57
44079;BME280;29744;49.078;12.878;2022-11-23T13:58:36;95188.22;;;15.07;41.65
44079;BME280;29744;49.078;12.878;2022-11-23T14:03:52;95184.31;;;15.04;41.72
44079;BME280;29744;49.078;12.878;2022-11-23T14:14:15;95180.03;;;15.03;41.72
44079;BME280;29744;49.078;12.878;2022-11-23T14:19:23;95192.75;;;15.03;41.85
44079;BME280;29744;49.078;12.878;2022-11-23T14:30:04;95201.91;;;14.98;41.80
44079;BME280;29744;49.078;12.878;2022-11-23T14:45:51;95194.44;;;14.92;41.94
44079;BME280;29744;49.078;12.878;2022-11-23T14:51:05;95192.47;;;14.89;41.96
44079;BME280;29744;49.078;12.878;2022-11-23T14:56:14;95183.94;;;14.87;42.16
44079;BME280;29744;49.078;12.878;2022-11-23T15:01:20;95178.09;;;14.85;41.93
44079;BME280;29744;49.078;12.878;2022-11-23T15:06:26;95185.78;;;14.82;42.06
44079;BME280;29744;49.078;12.878;2022-11-23T15:11:28;95188.06;;;14.80;41.97
44079;BME280;29744;49.078;12.878;2022-11-23T15:16:38;95196.84;;;14.77;42.01
44079;BME280;29744;49.078;12.878;2022-11-23T15:21:38;95207.66;;;14.77;42.00
44079;BME280;29744;49.078;12.878;2022-11-23T15:26:42;95202.59;;;14.76;42.28
44079;BME280;29744;49.078;12.878;2022-11-23T15:31:43;95212.19;;;14.73;42.02
44079;BME280;29744;49.078;12.878;2022-11-23T15:36:44;95211.41;;;14.73;42.14
44079;BME280;29744;49.078;12.878;2022-11-23T15:41:45;95202.88;;;14.71;42.03
44079;BME280;29744;49.078;12.878;2022-11-23T15:46:47;95207.50;;;14.70;42.39
44079;BME280;29744;49.078;12.878;2022-11-23T15:51:48;95207.09;;;14.68;42.52
44079;BME280;29744;49.078;12.878;2022-11-23T15:56:52;95212.84;;;14.67;42.20
44079;BME280;29744;49.078;12.878;2022-11-23T16:02:00;95215.09;;;14.65;42.51
44079;BME280;29744;49.078;12.878;2022-11-23T16:07:15;95224.31;;;14.64;41.90
44079;BME280;29744;49.078;12.878;2022-11-23T16:17:28;95226.69;;;14.65;42.17
44079;BME280;29744;49.078;12.878;2022-11-23T16:22:34;95229.44;;;14.69;42.14
44079;BME280;29744;49.078;12.878;2022-11-23T16:27:35;95238.06;;;14.74;42.56
44079;BME280;29744;49.078;12.878;2022-11-23T16:32:36;95238.63;;;14.83;42.12
44079;BME280;29744;49.078;12.878;2022-11-23T16:37:36;95246.59;;;14.96;42.25
44079;BME280;29744;49.078;12.878;2022-11-23T16:42:37;95242.66;;;15.09;41.93
44079;BME280;29744;49.078;12.878;2022-11-23T16:47:55;95240.22;;;15.23;41.82
44079;BME280;29744;49.078;12.878;2022-11-23T16:52:56;95235.94;;;15.41;41.88
44079;BME280;29744;49.078;12.878;2022-11-23T16:57:59;95230.06;;;15.59;41.81
44079;BME280;29744;49.078;12.878;2022-11-23T17:03:00;95233.88;;;15.77;41.86
44079;BME280;29744;49.078;12.878;2022-11-23T17:08:00;95234.63;;;15.97;41.52
44079;BME280;29744;49.078;12.878;2022-11-23T17:13:00;95237.25;;;16.16;41.75
44079;BME280;29744;49.078;12.878;2022-11-23T17:18:01;95240.22;;;16.34;41.30
44079;BME280;29744;49.078;12.878;2022-11-23T17:23:01;95245.09;;;16.48;41.17
44079;BME280;29744;49.078;12.878;2022-11-23T17:28:03;95246.09;;;16.62;41.17
44079;BME280;29744;49.078;12.878;2022-11-23T17:33:03;95251.66;;;16.73;41.25
44079;BME280;29744;49.078;12.878;2022-11-23T17:38:04;95245.97;;;16.82;41.10
44079;BME280;29744;49.078;12.878;2022-11-23T17:43:05;95246.84;;;16.89;40.78
44079;BME280;29744;49.078;12.878;2022-11-23T17:48:05;95257.00;;;16.96;40.19
44079;BME280;29744;49.078;12.878;2022-11-23T17:53:05;95254.31;;;16.99;40.62
44079;BME280;29744;49.078;12.878;2022-11-23T17:58:06;95259.78;;;17.03;40.35
44079;BME280;29744;49.078;12.878;2022-11-23T18:03:06;95252.06;;;17.05;40.55
44079;BME280;29744;49.078;12.878;2022-11-23T18:08:07;95251.28;;;17.04;40.35
44079;BME280;29744;49.078;12.878;2022-11-23T18:13:07;95247.03;;;17.03;40.28
44079;BME280;29744;49.078;12.878;2022-11-23T18:18:08;95240.06;;;17.02;40.22
44079;BME280;29744;49.078;12.878;2022-11-23T18:23:08;95238.50;;;17.01;40.44
44079;BME280;29744;49.078;12.878;2022-11-23T18:28:08;95234.59;;;16.99;40.43
44079;BME280;29744;49.078;12.878;2022-11-23T18:33:08;95247.72;;;16.97;40.08
44079;BME280;29744;49.078;12.878;2022-11-23T18:38:09;95252.72;;;16.95;40.18
44079;BME280;29744;49.078;12.878;2022-11-23T18:43:09;95266.63;;;16.93;40.29
44079;BME280;29744;49.078;12.878;2022-11-23T18:48:09;95273.97;;;16.93;40.32
44079;BME280;29744;49.078;12.878;2022-11-23T18:53:10;95270.13;;;16.94;40.22
44079;BME280;29744;49.078;12.878;2022-11-23T18:58:10;95274.38;;;16.95;40.58
44079;BME280;29744;49.078;12.878;2022-11-23T19:03:11;95274.03;;;16.96;39.94
44079;BME280;29744;49.078;12.878;2022-11-23T19:08:11;95278.28;;;16.97;40.43
44079;BME280;29744;49.078;12.878;2022-11-23T19:13:12;95293.81;;;17.00;40.04
44079;BME280;29744;49.078;12.878;2022-11-23T19:18:12;95295.38;;;17.01;40.36
44079;BME280;29744;49.078;12.878;2022-11-23T19:23:12;95305.41;;;17.01;40.36
44079;BME280;29744;49.078;12.878;2022-11-23T19:28:12;95314.75;;;17.03;40.29
44079;BME280;29744;49.078;12.878;2022-11-23T19:33:13;95320.94;;;17.04;40.31
44079;BME280;29744;49.078;12.878;2022-11-23T19:38:14;95325.94;;;17.02;39.83
44079;BME280;29744;49.078;12.878;2022-11-23T19:43:16;95335.22;;;17.01;40.43
44079;BME280;29744;49.078;12.878;2022-11-23T19:48:16;95333.66;;;17.00;39.85
44079;BME280;29744;49.078;12.878;2022-11-23T19:53:17;95337.09;;;16.97;40.28
44079;BME280;29744;49.078;12.878;2022-11-23T19:58:17;95339.38;;;16.95;39.86
44079;BME280;29744;49.078;12.878;2022-11-23T20:03:17;95341.69;;;16.93;40.03
44079;BME280;29744;49.078;12.878;2022-11-23T20:08:19;95347.41;;;16.88;39.99
44079;BME280;29744;49.078;12.878;2022-11-23T20:13:19;95358.97;;;16.85;39.94
44079;BME280;29744;49.078;12.878;2022-11-23T20:18:20;95357.78;;;16.82;40.35
44079;BME280;29744;49.078;12.878;2022-11-23T20:23:20;95357.34;;;16.80;40.39
44079;BME280;29744;49.078;12.878;2022-11-23T20:28:20;95371.97;;;16.76;40.58
44079;BME280;29744;49.078;12.878;2022-11-23T20:33:21;95374.63;;;16.72;40.18
44079;BME280;29744;49.078;12.878;2022-11-23T20:38:21;95383.47;;;16.69;40.41
44079;BME280;29744;49.078;12.878;2022-11-23T20:43:21;95389.97;;;16.64;40.55
44079;BME280;29744;49.078;12.878;2022-11-23T20:48:21;95389.91;;;16.61;40.08
44079;BME280;29744;49.078;12.878;2022-11-23T20:53:22;95400.69;;;16.57;40.65
44079;BME280;29744;49.078;12.878;2022-11-23T20:58:22;95418.75;;;16.53;40.74
44079;BME280;29744;49.078;12.878;2022-11-23T21:03:22;95418.72;;;16.50;40.50
44079;BME280;29744;49.078;12.878;2022-11-23T21:08:23;95432.16;;;16.46;40.71
44079;BME280;29744;49.078;12.878;2022-11-23T21:13:26;95446.41;;;16.43;40.85
44079;BME280;29744;49.078;12.878;2022-11-23T21:18:45;95451.31;;;16.37;40.71
44079;BME280;29744;49.078;12.878;2022-11-23T21:23:45;95453.97;;;16.34;40.76
44079;BME280;29744;49.078;12.878;2022-11-23T21:28:45;95463.94;;;16.30;40.41
44079;BME280;29744;49.078;12.878;2022-11-23T21:33:46;95473.91;;;16.26;40.51
44079;BME280;29744;49.078;12.878;2022-11-23T21:38:47;95481.94;;;16.22;40.68
44079;BME280;29744;49.078;12.878;2022-11-23T21:43:47;95491.56;;;16.20;40.99
44079;BME280;29744;49.078;12.878;2022-11-23T21:48:53;95496.91;;;16.16;40.75
44079;BME280;29744;49.078;12.878;2022-11-23T21:53:58;95487.56;;;16.14;40.55
44079;BME280;29744;49.078;12.878;2022-11-23T21:58:59;95488.28;;;16.10;41.10
44079;BME280;29744;49.078;12.878;2022-11-23T22:04:04;95493.63;;;16.07;41.21
44079;BME280;29744;49.078;12.878;2022-11-23T22:09:07;95493.19;;;16.05;40.92
44079;BME280;29744;49.078;12.878;2022-11-23T22:14:10;95497.41;;;16.02;41.13
44079;BME280;29744;49.078;12.878;2022-11-23T22:19:14;95507.78;;;16.00;40.84
44079;BME280;29744;49.078;12.878;2022-11-23T22:24:18;95515.03;;;15.96;41.26
44079;BME280;29744;49.078;12.878;2022-11-23T22:29:21;95515.75;;;15.93;41.10
44079;BME280;29744;49.078;12.878;2022-11-23T22:34:21;95519.16;;;15.90;41.18
44079;BME280;29744;49.078;12.878;2022-11-23T22:39:21;95509.84;;;15.88;41.34
44079;BME280;29744;49.078;12.878;2022-11-23T22:44:22;95524.06;;;15.85;40.88
44079;BME280;29744;49.078;12.878;2022-11-23T22:49:22;95532.88;;;15.82;40.92
44079;BME280;29744;49.078;12.878;2022-11-23T22:54:22;95535.16;;;15.80;41.07
44079;BME280;29744;49.078;12.878;2022-11-23T22:59:23;95535.06;;;15.76;41.20
44079;BME280;29744;49.078;12.878;2022-11-23T23:04:24;95537.31;;;15.74;41.11
44079;BME280;29744;49.078;12.878;2022-11-23T23:09:24;95528.78;;;15.72;41.41
44079;BME280;29744;49.078;12.878;2022-11-23T23:14:24;95524.09;;;15.69;41.47
44079;BME280;29744;49.078;12.878;2022-11-23T23:19:24;95523.66;;;15.67;41.05
44079;BME280;29744;49.078;12.878;2022-11-23T23:24:25;95539.44;;;15.65;41.44
44079;BME280;29744;49.078;12.878;2022-11-23T23:29:25;95536.66;;;15.61;41.24
44079;BME280;29744;49.078;12.878;2022-11-23T23:34:25;95540.06;;;15.58;41.79
44079;BME280;29744;49.078;12.878;2022-11-23T23:39:26;95544.25;;;15.56;41.40
44079;BME280;29744;49.078;12.878;2022-11-23T23:44:26;95543.03;;;15.53;41.33
44079;BME280;29744;49.078;12.878;2022-11-23T23:49:26;95546.09;;;15.52;41.52
44079;BME280;29744;49.078;12.878;2022-11-23T23:54:30;95544.09;;;15.49;41.06
44079;BME280;29744;49.078;12.878;2022-11-23T23:59:31;95550.19;;;15.45;41.17
